Ipava, Illinois
Current Conditions -  °F | °C
As of 2:35 AM on Sunday 26 Oct 2014 (Local Time) from KMQB Reporting Station
Clear Clear  
Wind Chill: 42°   Ceiling: Unl
Heat Index: 45°   Visibility: 10mi
Dew Point: 37°   Wind: 6mph
Humidity: 74%   Direction: 350°N
Pressure: 30.07"   Gusts: NA
Location:  40.35°N, 90.32°W
Report Text: KMQB 260735Z AUTO 35005KT 10SM CLR 07/03 A3007 RMK AO2 T00740030
Loading
Personal Weather Stations






























Interactive Weather Map
Tropical Storm Tracking
New forecast layout! Learn more

10-Day Weather Forecast

Advertisements
Track Severe Weather on mobile